Latest Weather Observations for Low Rocky Point

IDT60801

Issued at 7:41 pm EST Thursday 16 August 2018 (issued every 10 minutes, with the page automatically refreshed every 10 minutes)

About weather observations | Map of weather stations | Latest weather observations for TAS | Other Formats
Station Details ID: 097080 Name: LOW ROCKY POINT Lat: -42.98 Lon: 145.50 Height: 34.0 m
Data from the previous 72 hours. | See also: Recent months at Low Rocky Point
Date/Time
EST
Temp
°C
App
Temp
°C
Dew
Point
°C
Rel
Hum
%
Delta-T
°C
Wind Press
QNH
hPa
Press
MSL
hPa
Rain since
9am
mm
Dir  Spd
km/h
Gust
km/h
Spd
kts
Gust
kts
16/07:30pm 9.0 0.7 6.3 83 1.3 WNW 39 46 21 25 1006.4 1006.5 1.0
16/07:04pm 8.5 0.0 5.1 79 1.5 W 39 57 21 31 1006.4 1006.5 1.0
16/07:00pm 8.7 -0.6 5.1 78 1.6 W 43 57 23 31 1006.4 1006.5 1.0
16/06:30pm 9.4 1.4 5.6 77 1.7 W 37 44 20 24 1006.2 1006.3 1.0
16/06:00pm 9.0 2.8 6.3 83 1.3 W 28 43 15 23 1006.1 1006.2 1.0
16/05:30pm 8.8 0.0 5.4 79 1.5 WNW 41 50 22 27 1005.9 1006.0 1.0
16/05:00pm 8.8 1.5 5.5 80 1.5 WNW 33 46 18 25 1005.7 1005.8 1.0
16/04:44pm 8.9 1.2 5.3 78 1.6 W 35 57 19 31 1005.7 1005.8 0.6
16/04:30pm 10.1 2.6 6.3 77 1.8 W 35 46 19 25 1005.5 1005.6 0.4
16/04:00pm 9.8 2.3 6.2 78 1.7 W 35 48 19 26 1005.4 1005.5 0.4
16/03:30pm 9.8 0.5 5.8 76 1.8 W 44 54 24 29 1005.2 1005.3 0.4
16/03:00pm 10.7 2.5 6.6 76 1.9 W 39 46 21 25 1005.0 1005.1 0.4
16/02:30pm 9.7 1.4 6.1 78 1.7 WNW 39 46 21 25 1004.8 1004.9 0.4
16/02:06pm 8.5 -0.8 5.1 79 1.5 W 43 61 23 33 1004.9 1005.0 0.4
16/02:00pm 8.8 -1.4 5.2 78 1.6 WNW 48 61 26 33 1004.9 1005.0 0.2
16/01:30pm 11.0 2.1 6.7 75 2.0 W 43 50 23 27 1004.8 1004.9 0.2
16/01:00pm 9.2 0.0 5.4 77 1.7 W 43 54 23 29 1004.8 1004.9 0.2
16/12:39pm 10.3 1.6 6.1 75 1.9 W 41 59 22 32 1004.8 1004.9 0.2
16/12:30pm 10.7 0.7 6.1 73 2.1 WNW 48 57 26 31 1004.5 1004.6 0.2
16/12:00pm 10.5 1.3 5.5 71 2.3 W 43 54 23 29 1004.7 1004.8 0.2
16/11:41am 9.7 0.2 5.1 73 2.1 W 44 63 24 34 1004.8 1004.9 0.2
16/11:30am 11.2 2.1 6.7 74 2.1 W 44 54 24 29 1004.5 1004.6 0.2
16/11:00am 10.0 0.0 6.0 76 1.9 W 48 59 26 32 1004.1 1004.2 0.2
16/10:35am 9.2 -1.7 5.6 78 1.6 W 52 70 28 38 1003.9 1004.0 0.0
16/10:30am 8.7 -2.7 5.1 78 1.6 WNW 54 67 29 36 1003.8 1003.9 0.0
16/10:22am 9.4 -0.4 5.4 76 1.8 W 46 65 25 35 1003.7 1003.8 0.0
16/10:00am 9.4 0.0 5.4 76 1.8 W 44 59 24 32 1003.5 1003.6 0.0
16/09:57am 9.0 -0.5 5.0 76 1.8 W 44 69 24 37 1003.3 1003.4 0.0
16/09:51am 8.4 -2.8 3.8 73 2.0 W 52 69 28 37 1003.5 1003.6 0.0
16/09:30am 10.0 0.0 4.4 68 2.5 WNW 46 56 25 30 1003.2 1003.3 0.0
16/09:00am 8.8 -1.2 4.4 74 2.0 WNW 46 61 25 33 1002.8 1002.9 6.2
16/08:47am 8.8 -1.0 3.6 70 2.2 W 44 67 24 36 1002.9 1003.0 6.2
16/08:30am 9.7 -0.6 2.8 62 3.0 W 46 61 25 33 1002.7 1002.8 6.0
16/08:00am 9.4 -0.4 3.6 67 2.5 W 44 56 24 30 1002.3 1002.4 6.0
16/07:30am 9.3 -1.8 4.7 73 2.1 W 52 70 28 38 1001.6 1001.6 6.0
16/07:00am 9.1 -2.3 4.9 75 1.9 W 54 70 29 38 1000.6 1000.7 5.8
16/06:30am 9.2 -0.3 6.5 83 1.3 W 46 59 25 32 1000.1 1000.1 5.8
16/06:00am 8.6 -0.9 6.6 87 0.9 W 46 61 25 33 999.7 999.8 5.8
16/05:30am 8.6 -1.8 6.1 84 1.1 W 50 69 27 37 999.5 999.5 5.4
16/05:10am 8.2 -3.0 5.8 85 1.1 WSW 54 72 29 39 999.3 999.3 5.4
16/05:00am 9.5 -2.0 6.9 84 1.2 W 57 72 31 39 998.8 998.9 5.4
16/04:30am 7.2 -3.0 5.0 86 1.0 W 48 74 26 40 998.7 998.7 5.4
16/04:04am 10.1 -0.6 6.3 77 1.8 W 52 78 28 42 998.0 998.0 4.4
16/04:00am 10.4 0.1 6.5 77 1.8 W 50 63 27 34 998.0 998.1 4.4
16/03:30am 10.5 -1.2 6.1 74 2.0 WNW 57 70 31 38 997.8 997.8 4.4
16/03:00am 10.3 0.1 5.3 71 2.3 W 48 61 26 33 997.9 998.0 4.4
16/02:30am 10.3 0.5 5.5 72 2.2 W 46 63 25 34 998.1 998.1 4.4
16/02:00am 10.3 -0.2 5.7 73 2.1 W 50 61 27 33 997.8 997.9 4.4
16/01:30am 10.2 0.9 5.8 74 2.0 W 44 56 24 30 997.5 997.5 4.4
16/01:00am 10.1 0.6 6.8 80 1.6 W 46 59 25 32 997.3 997.4 4.4
16/12:30am 9.7 1.3 7.3 85 1.1 W 41 57 22 31 996.9 996.9 4.4
16/12:01am 9.8 0.7 6.9 82 1.4 WSW 44 65 24 35 996.6 996.6 4.0
16/12:00am 10.0 1.2 7.1 82 1.4 WSW 43 57 23 31 996.5 996.6 4.0
 
Date/Time
EST
Temp
°C
App
Temp
°C
Dew
Point
°C
Rel
Hum
%
Delta-T
°C
Wind Press
QNH
hPa
Press
MSL
hPa
Rain since
9am
mm
Dir  Spd
km/h
Gust
km/h
Spd
kts
Gust
kts
15/11:36pm 10.4 1.2 6.5 77 1.8 W 44 69 24 37 996.1 996.1 4.0
15/11:30pm 10.4 0.9 6.7 78 1.7 WSW 46 59 25 32 996.0 996.0 4.0
15/11:00pm 10.1 0.3 7.2 82 1.4 WSW 48 61 26 33 995.5 995.6 4.0
15/10:30pm 9.7 -0.4 7.5 86 1.0 W 50 65 27 35 994.7 994.7 4.0
15/10:00pm 10.1 0.5 7.9 86 1.1 W 48 61 26 33 994.2 994.3 4.0
15/09:30pm 10.3 1.1 7.9 85 1.2 W 46 59 25 32 993.8 993.8 4.0
15/09:01pm 9.9 0.4 8.3 90 0.8 W 48 67 26 36 993.3 993.3 3.8
15/09:00pm 9.9 0.0 8.3 90 0.8 W 50 67 27 36 993.3 993.4 3.8
15/08:47pm 9.9 -0.4 8.3 90 0.8 W 52 70 28 38 992.9 992.9 3.8
15/08:30pm 9.9 -1.7 8.3 90 0.8 W 59 76 32 41 992.5 992.5 3.8
15/08:00pm 9.2 -2.1 8.0 92 0.6 WNW 57 69 31 37 992.1 992.1 3.8
15/07:30pm 9.6 -1.6 8.4 92 0.6 WNW 57 85 31 46 991.7 991.7 3.6
15/07:06pm 9.8 -2.3 7.9 88 0.9 WNW 61 80 33 43 991.6 991.6 2.6
15/07:00pm 9.8 -3.1 7.7 87 1.0 WNW 65 80 35 43 991.2 991.2 2.0
15/06:30pm 9.1 -4.8 7.4 89 0.8 WNW 70 91 38 49 990.8 990.8 2.0
15/06:00pm 8.3 -5.9 6.1 86 1.0 W 70 98 38 53 990.6 990.6 1.6
15/05:30pm 10.2 -2.3 6.0 75 1.9 WNW 61 85 33 46 990.4 990.4 0.6
15/05:06pm 10.6 -0.4 6.6 76 1.9 WNW 54 72 29 39 990.7 990.7 0.6
15/05:00pm 10.5 -0.6 6.5 76 1.9 WNW 54 69 29 37 990.9 990.9 0.6
15/04:30pm 11.0 -1.8 6.4 73 2.2 WNW 63 82 34 44 990.5 990.5 0.6
15/04:11pm 11.2 -0.9 6.3 72 2.3 WNW 59 78 32 42 990.5 990.5 0.6
15/04:00pm 11.2 -1.7 6.1 71 2.4 WNW 63 78 34 42 990.5 990.5 0.6
15/03:30pm 11.1 -0.4 7.2 77 1.9 WNW 57 74 31 40 990.3 990.3 0.6
15/03:02pm 10.5 -3.2 7.4 81 1.5 WNW 69 87 37 47 990.2 990.2 0.6
15/03:00pm 10.7 -3.2 7.6 81 1.5 WNW 70 87 38 47 990.2 990.2 0.6
15/02:53pm 10.2 -3.2 6.9 80 1.6 WNW 67 87 36 47 989.8 989.8 0.6
15/02:46pm 11.1 -1.9 7.0 76 2.0 WNW 65 78 35 42 989.9 989.9 0.4
15/02:31pm 11.1 -0.7 7.4 78 1.8 W 59 78 32 42 990.0 990.0 0.4
15/02:30pm 10.8 -1.5 7.1 78 1.8 W 61 78 33 42 990.0 990.0 0.4
15/02:18pm 11.1 -2.8 6.6 74 2.1 WNW 69 93 37 50 989.7 989.7 0.4
15/02:00pm 11.5 -0.8 7.0 74 2.2 WNW 61 76 33 41 989.3 989.3 0.4
15/01:30pm 11.5 -1.1 7.4 76 2.0 WNW 63 83 34 45 989.1 989.1 0.4
15/01:00pm 11.8 -0.2 8.3 79 1.7 W 61 80 33 43 988.5 988.5 0.4
15/12:45pm 11.2 -1.0 7.3 77 1.9 W 61 80 33 43 988.4 988.4 0.4
15/12:30pm 11.2 -1.3 7.9 80 1.6 WNW 63 76 34 41 988.1 988.1 0.4
15/12:09pm 10.4 -1.4 7.6 83 1.3 W 59 80 32 43 987.8 987.8 0.4
15/12:00pm 9.7 -1.8 7.1 84 1.2 W 57 69 31 37 987.6 987.6 0.4
15/11:45am 10.6 -2.1 6.9 78 1.8 WNW 63 83 34 45 987.3 987.3 0.0
15/11:30am 11.7 -1.1 8.2 79 1.7 WNW 65 76 35 41 987.3 987.3 0.0
15/11:01am 10.9 -2.3 8.0 82 1.4 WNW 67 85 36 46 986.8 986.8 0.0
15/11:00am 10.8 -2.8 7.9 82 1.4 WNW 69 85 37 46 986.7 986.7 0.0
15/10:30am 10.3 -4.0 7.5 83 1.3 WNW 72 91 39 49 985.7 985.7 0.0
15/10:00am 9.3 -5.4 7.4 88 0.9 WNW 74 102 40 55 985.4 985.4 0.0
15/09:30am 10.4 -4.6 9.3 93 0.5 WNW 78 100 42 54 984.8 984.9 0.0
15/09:07am 9.3 -4.2 9.0 98 0.1 WNW 70 89 38 48 984.5 984.6 0.0
15/09:00am 8.5 -6.8 7.9 96 0.3 WNW 78 109 42 59 984.6 984.7 11.4
15/08:59am 8.3 -7.1 7.7 96 0.3 WNW 78 109 42 59 984.7 984.8 11.4
15/08:56am 8.1 -7.4 7.2 94 0.4 WNW 78 109 42 59 984.3 984.4 11.0
15/08:55am 8.2 -6.9 7.1 93 0.5 WNW 76 109 41 59 984.0 984.1 10.8
15/08:54am 9.1 -5.0 8.0 93 0.5 NW 72 109 39 59 983.8 983.9 10.6
15/08:30am 9.9 -3.9 9.4 97 0.2 WNW 72 91 39 49 984.0 984.1 10.6
15/08:00am 9.4 -5.6 9.3 99 0.1 WNW 78 98 42 53 983.7 983.8 10.6
15/07:30am 9.5 -5.8 9.4 99 0.0 NW 80 106 43 57 983.2 983.3 10.0
15/07:04am 8.0 -8.2 5.5 84 1.1 WNW 80 115 43 62 983.6 983.7 8.4
15/07:00am 10.7 -4.3 7.6 81 1.5 NW 76 96 41 52 983.4 983.5 7.8
15/06:30am 10.5 -5.6 7.9 84 1.3 NW 82 104 44 56 983.8 983.9 7.8
15/06:00am 10.1 -7.0 7.7 85 1.2 NW 87 111 47 60 983.5 983.6 7.8
15/05:30am 9.9 -4.1 8.7 92 0.6 NW 72 96 39 52 984.1 984.2 7.6
15/05:00am 10.8 -2.9 8.2 84 1.3 NW 70 89 38 48 984.6 984.7 6.6
15/04:30am 9.9 -3.9 7.8 87 1.0 WNW 70 95 38 51 984.6 984.7 6.6
15/04:23am 10.0 -4.9 8.1 88 0.9 WNW 76 93 41 50 984.8 984.9 6.6
15/04:22am 10.0 -4.8 8.3 89 0.8 NW 76 95 41 51 984.8 984.9 6.6
15/04:04am 8.9 -7.6 6.9 87 0.9 WNW 83 111 45 60 984.9 985.0 6.6
15/04:03am 9.3 -7.1 7.1 86 1.0 NW 83 111 45 60 984.8 984.9 6.4
15/04:00am 11.1 -3.9 9.0 87 1.1 NW 78 102 42 55 984.5 984.6 6.4
15/03:30am 11.3 -4.3 10.4 94 0.5 NW 83 106 45 57 984.6 984.7 6.4
15/03:00am 11.1 -3.4 10.9 99 0.1 NW 78 96 42 52 985.2 985.3 6.4
15/02:30am 10.6 -2.9 10.4 99 0.1 NW 72 91 39 49 985.5 985.5 6.4
15/02:00am 9.7 -5.9 9.6 99 0.1 NW 82 107 44 58 985.4 985.4 6.0
15/01:48am 10.2 -6.5 9.0 92 0.6 NW 87 111 47 60 985.7 985.7 3.4
15/01:30am 12.1 -3.3 10.3 89 0.9 NNW 82 107 44 58 984.0 984.1 1.4
15/01:00am 13.3 -1.4 10.1 81 1.7 NNW 78 106 42 57 985.0 985.1 0.0
15/12:30am 13.6 0.0 10.0 79 1.9 NNW 72 106 39 57 986.7 986.7 0.0
15/12:00am 13.4 -0.2 10.0 80 1.8 NNW 72 104 39 56 988.2 988.2 0.0
 
Date/Time
EST
Temp
°C
App
Temp
°C
Dew
Point
°C
Rel
Hum
%
Delta-T
°C
Wind Press
QNH
hPa
Press
MSL
hPa
Rain since
9am
mm
Dir  Spd
km/h
Gust
km/h
Spd
kts
Gust
kts
14/11:30pm 13.6 0.2 9.6 77 2.1 NNW 70 95 38 51 989.4 989.4 0.0
14/11:00pm 13.8 -0.4 9.3 74 2.3 NNW 74 102 40 55 990.4 990.4 0.0
14/10:30pm 13.9 0.6 8.9 72 2.5 NNW 69 100 37 54 991.1 991.1 0.0
14/10:00pm 13.7 1.4 8.7 72 2.5 NNW 63 95 34 51 992.0 992.0 0.0
14/09:30pm 13.6 1.3 8.7 72 2.5 NNW 63 87 34 47 992.8 992.8 0.0
14/09:00pm 13.4 0.9 9.1 75 2.2 NNW 65 91 35 49 993.8 993.9 0.0
14/08:30pm 13.2 1.0 9.1 76 2.1 NNW 63 89 34 48 995.1 995.1 0.0
14/08:00pm 13.0 1.3 9.4 79 1.8 NNW 61 87 33 47 995.9 996.0 0.0
14/07:30pm 12.8 0.9 10.0 83 1.4 NNW 63 87 34 47 996.5 996.5 0.0
14/07:00pm 13.0 0.4 10.2 83 1.5 NNW 67 95 36 51 997.3 997.4 0.0
14/06:30pm 13.1 0.9 10.5 84 1.4 NNW 65 98 35 53 997.6 997.6 0.0
14/06:00pm 13.1 1.2 10.1 82 1.6 NNW 63 87 34 47 998.1 998.2 0.0
14/05:30pm 13.0 2.2 9.8 81 1.6 NNW 57 80 31 43 998.5 998.5 0.0
14/05:00pm 12.8 1.6 10.0 83 1.4 NNW 59 82 32 44 999.0 999.1 0.0
14/04:30pm 12.9 1.5 10.4 85 1.3 NNW 61 80 33 43 999.8 999.8 0.0
14/04:01pm 13.0 0.4 10.4 84 1.3 NNW 67 85 36 46 1000.5 1000.5 0.0
14/04:00pm 13.0 0.1 10.4 84 1.4 NNW 69 85 37 46 1000.5 1000.6 0.0
14/03:30pm 13.1 -0.1 10.3 83 1.5 NNW 70 91 38 49 1001.3 1001.3 0.0
14/03:00pm 13.1 0.8 10.1 82 1.6 NNW 65 85 35 46 1001.8 1001.9 0.0
14/02:30pm 13.1 0.3 9.7 80 1.7 NNW 67 87 36 47 1002.3 1002.4 0.0
14/02:00pm 13.3 -0.4 9.7 79 1.9 NNW 72 93 39 50 1002.9 1003.0 0.0
14/01:30pm 13.5 0.0 10.3 81 1.7 NW 72 95 39 51 1003.9 1004.0 0.0
14/01:00pm 13.3 0.3 10.3 82 1.6 NW 69 89 37 48 1004.2 1004.3 0.0
14/12:30pm 13.1 -0.5 10.1 82 1.5 NW 72 91 39 49 1005.1 1005.2 0.0
14/12:00pm 13.5 0.4 10.5 82 1.6 NW 70 89 38 48 1006.0 1006.1 0.0
14/11:30am 13.4 1.7 10.9 85 1.3 NW 63 82 34 44 1006.9 1007.0 0.0
14/11:28am 13.2 1.5 10.7 85 1.3 NW 63 82 34 44 1007.0 1007.1 0.0
14/11:00am 12.8 -0.4 10.3 85 1.3 NW 70 87 38 47 1007.4 1007.5 0.0
14/10:30am 12.7 0.8 10.2 85 1.3 NW 63 82 34 44 1008.0 1008.1 0.0
14/10:16am 12.6 1.1 10.1 85 1.3 NW 61 82 33 44 1008.3 1008.4 0.0
14/10:00am 12.8 0.7 10.7 87 1.1 NW 65 82 35 44 1008.8 1008.9 0.0
14/09:34am 12.4 1.4 10.5 88 1.0 NW 59 80 32 43 1009.1 1009.2 0.0
14/09:30am 12.5 1.5 10.6 88 1.0 NW 59 72 32 39 1009.2 1009.3 0.0
14/09:00am 12.4 0.6 10.5 88 1.0 NW 63 78 34 42 1009.3 1009.4 2.6
14/08:30am 12.4 1.4 10.5 88 1.0 NW 59 72 32 39 1009.9 1010.0 2.6
14/08:00am 12.2 1.1 10.3 88 1.0 NW 59 72 32 39 1010.1 1010.2 2.6
14/07:30am 12.1 1.4 10.3 89 0.9 NW 57 70 31 38 1010.2 1010.3 2.6
14/07:00am 11.9 0.8 10.1 89 0.9 NW 59 72 32 39 1010.4 1010.5 2.6
14/06:30am 11.8 0.3 10.2 90 0.8 NW 61 72 33 39 1010.6 1010.7 2.6
14/06:00am 11.9 1.5 10.6 92 0.7 NW 56 70 30 38 1010.6 1010.7 2.6
14/05:35am 11.8 1.8 10.7 93 0.6 NW 54 74 29 40 1010.7 1010.8 2.6
14/05:30am 12.0 2.4 10.9 93 0.6 NW 52 69 28 37 1010.8 1010.9 2.6
14/05:00am 11.9 2.0 11.1 95 0.4 NW 54 70 29 38 1010.7 1010.8 2.6
14/04:49am 12.0 1.7 11.2 95 0.4 NW 56 74 30 40 1010.5 1010.6 2.6
14/04:30am 12.0 1.3 11.5 97 0.3 NW 59 76 32 41 1010.3 1010.4 2.6
14/04:22am 12.0 1.6 11.5 97 0.3 NW 57 76 31 41 1010.2 1010.3 2.6
14/04:00am 12.0 2.3 11.8 99 0.1 NW 54 69 29 37 1010.4 1010.5 2.6
14/03:30am 11.9 1.8 11.7 99 0.1 WNW 56 72 30 39 1010.6 1010.7 2.6
14/03:22am 11.8 2.0 11.6 99 0.1 WNW 54 72 29 39 1010.5 1010.6 2.6
14/03:00am 11.8 1.5 11.6 99 0.1 WNW 57 69 31 37 1010.7 1010.8 2.6
14/02:30am 11.9 1.8 11.7 99 0.1 WNW 56 69 30 37 1011.0 1011.1 2.6
14/02:00am 12.0 1.9 11.8 99 0.1 NW 56 70 30 38 1010.9 1011.0 2.6
14/01:57am 12.2 2.2 12.0 99 0.1 NW 56 74 30 40 1011.0 1011.1 2.6
14/01:30am 12.1 2.4 11.9 99 0.1 WNW 54 69 29 37 1010.8 1010.9 2.6
14/01:00am 12.0 1.4 11.8 99 0.1 WNW 59 76 32 41 1010.6 1010.7 2.6
14/12:40am 12.0 0.6 11.8 99 0.1 WNW 63 82 34 44 1010.6 1010.7 2.6
14/12:30am 12.0 1.0 11.8 99 0.1 WNW 61 74 33 40 1010.6 1010.7 2.6
14/12:06am 12.0 1.0 11.8 99 0.1 WNW 61 80 33 43 1010.4 1010.5 2.6
14/12:00am 11.9 0.5 11.7 99 0.1 WNW 63 80 34 43 1010.3 1010.4 2.6
 
Date/Time
EST
Temp
°C
App
Temp
°C
Dew
Point
°C
Rel
Hum
%
Delta-T
°C
Wind Press
QNH
hPa
Press
MSL
hPa
Rain since
9am
mm
Dir  Spd
km/h
Gust
km/h
Spd
kts
Gust
kts
13/11:30pm 12.0 1.0 11.8 99 0.1 WNW 61 78 33 42 1010.3 1010.4 2.6
13/11:00pm 11.8 0.3 11.6 99 0.1 WNW 63 76 34 41 1010.4 1010.5 2.6
13/10:30pm 11.6 0.1 11.4 99 0.1 WNW 63 76 34 41 1010.3 1010.4 2.6
13/10:00pm 11.7 1.0 11.5 99 0.1 WNW 59 78 32 42 1010.5 1010.6 2.4
13/09:51pm 11.7 1.3 11.5 99 0.1 WNW 57 78 31 42 1010.5 1010.6 2.4
13/09:30pm 11.7 1.3 11.5 99 0.1 WNW 57 70 31 38 1010.6 1010.7 2.2
13/09:00pm 11.9 0.1 11.7 99 0.1 WNW 65 80 35 43 1010.1 1010.2 2.2
13/08:33pm 11.9 0.1 11.7 99 0.1 WNW 65 85 35 46 1009.6 1009.7 2.2
13/08:30pm 11.9 0.5 11.7 99 0.1 WNW 63 78 34 42 1009.8 1009.9 2.2
13/08:00pm 11.9 0.1 11.7 99 0.1 WNW 65 80 35 43 1009.6 1009.7 2.2

Other Formats:

Comma delimited format used in spreadsheet applications
http://www.bom.gov.au/fwo/IDT60801/IDT60801.95961.axf

JavaScript Object Notation format (JSON) in row-major order
http://www.bom.gov.au/fwo/IDT60801/IDT60801.95961.json